Nearby METAR Reports

 

EGEO - Oban, United Kingdom
Distance from station: SSW 18mi, 30km
Updated: 11/05/2018 15:20
NOT Current
Light drizzle, Overcast
Light drizzle, Overcast
 Wind from S
Wind: S 17 mph , 28 km/h
Temperature: 12°C
Dew Point: 6°C
Humidity: 67%
Barometer: 1006 hPa
Summary: Light Drizzle
Clouds: Overcast
Visibility: 5 miles , 8 km
Cloud details: Overcast 1280 m
2018/05/11 14:20 EGEO 111420Z 17015KT 8000 -DZ OVC042 12/06 Q1006
EGPU - Tiree, United Kingdom
Distance from station: WSW 64mi, 103km
Updated: 20/05/2018 23:20
Mist, Overcast
Mist, Overcast
 Wind from S
Wind: S 3 mph , 6 km/h
Temperature: 10°C
Dew Point: 10°C
Humidity: 100%
Barometer: 1016 hPa
Summary: Mist
Clouds: Overcast
Visibility: 1 mile , 1 km
Cloud details: Overcast 30 m
2018/05/20 22:20 EGPU 202220Z AUTO 17003KT 1000 BR OVC001/// 10/10 Q1016 RERA
EGPF - Glasgow, United Kingdom
Distance from station: SSE 66mi, 107km
Updated: 20/05/2018 23:50
Clear
Clear
 Wind from SSE
Wind: SSE 8 mph , 13 km/h
Temperature: 15°C
Dew Point: 5°C
Humidity: 51%
Barometer: 1018 hPa
Clouds: Clear
Visibility: 6 miles , 10 km
2018/05/20 22:50 EGPF 202250Z AUTO 15007KT 9999 NCD 15/05 Q1018
 
EGPE - Inverness, United Kingdom
Distance from station: NE 71mi, 114km
Updated: 20/05/2018 23:50
Overcast
Overcast
 Wind from varies
Wind: varies 1 mph , 2 km/h
Temperature: 14°C
Dew Point: 12°C
Humidity: 88%
Barometer: 1016 hPa
Clouds: Overcast
Visibility: 6 miles , 10 km
Cloud details: Mostly cloudy 884 m
Mostly cloudy 1036 m
Overcast 1219 m
2018/05/20 22:50 EGPE 202250Z AUTO VRB01KT 9999 BKN029/// BKN034/// OVC040/// 14/12 Q1016
EGPI - Islay/Port Ellen, United Kingdom
Distance from station: SSW 81mi, 131km
Updated: 20/05/2018 23:20
Rain, Mostly cloudy
Rain, Mostly cloudy
 Wind from SE
Wind: SE 14 mph , 22 km/h
Temperature: 11°C
Dew Point: 11°C
Humidity: 100%
Barometer: 1016 hPa
Summary: Rain
Clouds: Mostly cloudy
Visibility: 1 mile , 2 km
Cloud details: Mostly cloudy 61 m
Mostly cloudy 274 m
2018/05/20 22:20 EGPI 202220Z AUTO 14012KT 110V170 2100 RA BKN002/// BKN009/// 11/11 Q1016
EGPN - Dundee/Riverside, United Kingdom
Distance from station: E 86mi, 138km
Updated: 20/05/2018 21:20
NOT Current
Clear
Clear
 Wind from calm
Wind: Calm
Temperature: 15°C
Dew Point: 10°C
Humidity: 72%
Barometer: 1018 hPa
Summary: Clear
Visibility: greater than 7 miles , 10 km
2018/05/20 20:20 EGPN 202020Z 00000KT CAVOK 15/10 Q1018
 
EGPK - Prestwick, United Kingdom
Distance from station: SSE 88mi, 141km
Updated: 20/05/2018 23:50
Partly cloudy
Partly cloudy
 Wind from SSE
Wind: SSE 7 mph , 11 km/h
Temperature: 14°C
Dew Point: 6°C
Humidity: 59%
Barometer: 1018 hPa
Clouds: Partly cloudy
Visibility: 6 miles , 10 km
Cloud details: Partly cloudy 1067 m
2018/05/20 22:50 EGPK 202250Z 15006KT 9999 SCT035 14/06 Q1018
EGPH - Edinburgh, United Kingdom
Distance from station: SE 89mi, 143km
Updated: 20/05/2018 23:50
Clear
Clear
 Wind from varies
Wind: varies 3 mph , 6 km/h
Temperature: 14°C
Dew Point: 6°C
Humidity: 59%
Barometer: 1018 hPa
Summary: Clear
Visibility: greater than 7 miles , 10 km
2018/05/20 22:50 EGPH 202250Z VRB03KT CAVOK 14/06 Q1018
EGQK - RAF Kinloss, United Kingdom
Distance from station: NE 90mi, 144km
Updated: 20/05/2018 22:50
Mostly cloudy
Mostly cloudy
 Wind from SSW
Wind: SSW 13 mph , 20 km/h
Temperature: 16°C
Dew Point: 10°C
Humidity: 68%
Barometer: 1016 hPa
Clouds: Mostly cloudy
Visibility: 6 miles , 10 km
Cloud details: Mostly cloudy 1372 m
2018/05/20 21:50 EGQK 202150Z AUTO 20011KT 9999 BKN045/// 16/10 Q1016
 
EGEC - Campbeltown, United Kingdom
Distance from station: S 90mi, 145km
Updated: 20/05/2018 18:20
NOT Current
Mostly cloudy
Mostly cloudy
 Wind from ESE
Wind: ESE 14 mph , 22 km/h
Temperature: 11°C
Dew Point: 10°C
Humidity: 94%
Barometer: 1016 hPa
Clouds: Mostly cloudy
Visibility: 6 miles , 10 km
Cloud details: Few Clouds 366 m
Mostly cloudy 853 m
2018/05/20 17:20 EGEC 201720Z 11012KT 9999 FEW012 BKN028 11/10 Q1016
EGQA - Tain Range, United Kingdom
Distance from station: NNE 91mi, 146km
Updated: 18/05/2018 10:50
NOT Current
Partly cloudy
Partly cloudy
 Wind from S
Wind: S 13 mph , 20 km/h
Clouds: Partly cloudy
Visibility: 6 miles , 10 km
Cloud details: Few Clouds 914 m
Partly cloudy 1524 m
2018/05/18 09:50 EGQA 180950Z 19011KT 9999 FEW030 SCT050 15/// Q1023 BLU
EGQL - RAF Leuchars, United Kingdom
Distance from station: ESE 93mi, 149km
Updated: 20/05/2018 22:50
Mostly cloudy
Mostly cloudy
 Wind from WSW
Wind: WSW 3 mph , 6 km/h
Temperature: 14°C
Dew Point: 5°C
Humidity: 55%
Barometer: 1018 hPa
Clouds: Mostly cloudy
Visibility: 6 miles , 10 km
Cloud details: Partly cloudy 1463 m
Mostly cloudy 3658 m
Mostly cloudy 4877 m
2018/05/20 21:50 EGQL 202150Z 24003KT 9999 SCT048 BKN120 BKN160 14/05 Q1018 BLU
 
EGPL - Benbecula, United Kingdom
Distance from station: WNW 96mi, 154km
Updated: 20/05/2018 23:50
Light rain, Overcast
Light rain, Overcast
 Wind from N
Wind: N 8 mph , 13 km/h
Temperature: 9°C
Wind Chill: 7°C
Dew Point: 9°C
Humidity: 100%
Barometer: 1017 hPa
Summary: Light rain
Clouds: Overcast
Visibility: 6 miles , 10 km
Cloud details: Mostly cloudy 183 m
Mostly cloudy 305 m
Overcast 914 m
2018/05/20 22:50 EGPL 202250Z AUTO 36007KT 9999 -RA BKN006/// BKN010/// OVC030/// 09/09 Q1017
EGQS - RAF Lossiemouth, United Kingdom
Distance from station: NE 99mi, 160km
Updated: 20/05/2018 22:50
Mostly cloudy
Mostly cloudy
 Wind from SSW
Wind: SSW 10 mph , 17 km/h
Temperature: 15°C
Dew Point: 9°C
Humidity: 68%
Barometer: 1016 hPa
Clouds: Mostly cloudy
Visibility: 6 miles , 10 km
Cloud details: Few Clouds 1128 m
Mostly cloudy 1341 m
2018/05/20 21:50 EGQS 202150Z 21009KT 9999 FEW037 BKN044 15/09 Q1016 BLU
EGPO - Stornoway, United Kingdom
Distance from station: NNW 111mi, 179km
Updated: 20/05/2018 23:50
Light rain, Overcast
Light rain, Overcast
 Wind from NNE
Wind: NNE 5 mph , 7 km/h
Temperature: 8°C
Wind Chill: 7°C
Dew Point: 8°C
Humidity: 100%
Barometer: 1017 hPa
Summary: Light rain
Clouds: Overcast
Visibility: 6 miles , 10 km
Cloud details: Mostly cloudy 152 m
Overcast 671 m
2018/05/20 22:50 EGPO 202250Z AUTO 03004KT 9999 -RA BKN005/// OVC022/// 08/08 Q1017
 
EGPD - Aberdeen/Dyce, United Kingdom
Distance from station: ENE 118mi, 190km
Updated: 20/05/2018 23:20
Clear
Clear
 Wind from SSE
Wind: SSE 14 mph , 22 km/h
Temperature: 12°C
Dew Point: 8°C
Humidity: 77%
Barometer: 1018 hPa
Clouds: Clear
Visibility: 6 miles , 10 km
2018/05/20 22:20 EGPD 202220Z AUTO 15012KT 9999 NCD 12/08 Q1018
EGAE - Eglinton/Londond, United Kingdom
Distance from station: SSW 138mi, 222km
Updated: 20/05/2018 21:20
NOT Current
Mostly cloudy
Mostly cloudy
 Wind from SSW
Wind: SSW 10 mph , 17 km/h
Temperature: 15°C
Dew Point: 13°C
Humidity: 88%
Barometer: 1015 hPa
Clouds: Mostly cloudy
Visibility: 6 miles , 10 km
Cloud details: Few Clouds 244 m
Mostly cloudy 610 m
2018/05/20 20:20 EGAE 202020Z 20009KT 170V230 9999 FEW008 BKN020 15/13 Q1015
EGPC - Wick, United Kingdom
Distance from station: NNE 144mi, 232km
Updated: 20/05/2018 23:50
Mostly cloudy
Mostly cloudy
 Wind from N
Wind: N 10 mph , 17 km/h
Temperature: 12°C
Dew Point: 10°C
Humidity: 88%
Barometer: 1016 hPa
Clouds: Mostly cloudy
Visibility: 6 miles , 10 km
Cloud details: Mostly cloudy 914 m
2018/05/20 22:50 EGPC 202250Z AUTO 36009KT 9999 BKN030/// 12/10 Q1016

Metar display script from Saratoga-Weather.org